sensor_id;sensor_type;location;lat;lon;timestamp;pressure;altitude;pressure_sealevel;temperature;humidity
7834;BME280;3962;42.696;23.354;2023-09-30T00:01:09;95609.34;;;16.37;67.66
7834;BME280;3962;42.696;23.354;2023-09-30T00:03:36;95610.63;;;16.41;67.09
7834;BME280;3962;42.696;23.354;2023-09-30T00:06:03;95609.78;;;16.48;67.53
7834;BME280;3962;42.696;23.354;2023-09-30T00:08:31;95615.16;;;16.48;67.30
7834;BME280;3962;42.696;23.354;2023-09-30T00:10:59;95610.25;;;16.52;67.62
7834;BME280;3962;42.696;23.354;2023-09-30T00:13:25;95597.22;;;16.41;67.67
7834;BME280;3962;42.696;23.354;2023-09-30T00:15:52;95604.56;;;16.47;67.69
7834;BME280;3962;42.696;23.354;2023-09-30T00:18:19;95603.78;;;16.30;68.14
7834;BME280;3962;42.696;23.354;2023-09-30T00:20:46;95605.16;;;16.26;68.53
7834;BME280;3962;42.696;23.354;2023-09-30T00:23:13;95606.97;;;16.26;68.55
7834;BME280;3962;42.696;23.354;2023-09-30T00:25:41;95603.28;;;16.27;68.13
7834;BME280;3962;42.696;23.354;2023-09-30T00:28:08;95607.13;;;16.40;67.48
7834;BME280;3962;42.696;23.354;2023-09-30T00:30:35;95600.75;;;16.33;67.41
7834;BME280;3962;42.696;23.354;2023-09-30T00:33:02;95603.97;;;16.37;67.21
7834;BME280;3962;42.696;23.354;2023-09-30T00:35:31;95599.25;;;16.39;67.41
7834;BME280;3962;42.696;23.354;2023-09-30T00:37:58;95590.66;;;16.43;67.33
7834;BME280;3962;42.696;23.354;2023-09-30T00:40:25;95602.75;;;16.39;67.53
7834;BME280;3962;42.696;23.354;2023-09-30T00:42:53;95599.75;;;16.42;67.49
7834;BME280;3962;42.696;23.354;2023-09-30T00:45:21;95601.19;;;16.53;67.44
7834;BME280;3962;42.696;23.354;2023-09-30T00:47:48;95600.25;;;16.68;66.74
7834;BME280;3962;42.696;23.354;2023-09-30T00:50:17;95590.91;;;16.64;66.43
7834;BME280;3962;42.696;23.354;2023-09-30T00:52:45;95598.44;;;16.69;66.07
7834;BME280;3962;42.696;23.354;2023-09-30T00:55:14;95590.41;;;16.61;66.31
7834;BME280;3962;42.696;23.354;2023-09-30T00:57:42;95589.56;;;16.60;66.51
7834;BME280;3962;42.696;23.354;2023-09-30T01:00:11;95593.59;;;16.64;66.26
7834;BME280;3962;42.696;23.354;2023-09-30T01:02:38;95596.28;;;16.64;66.63
7834;BME280;3962;42.696;23.354;2023-09-30T01:05:06;95587.34;;;16.64;66.60
7834;BME280;3962;42.696;23.354;2023-09-30T01:07:33;95591.66;;;16.73;66.48
7834;BME280;3962;42.696;23.354;2023-09-30T01:10:00;95590.47;;;16.75;66.45
7834;BME280;3962;42.696;23.354;2023-09-30T01:12:27;95590.81;;;16.80;66.47
7834;BME280;3962;42.696;23.354;2023-09-30T01:14:57;95587.00;;;16.67;66.05
7834;BME280;3962;42.696;23.354;2023-09-30T01:17:25;95580.16;;;16.64;66.19
7834;BME280;3962;42.696;23.354;2023-09-30T01:19:54;95583.66;;;16.65;66.74
7834;BME280;3962;42.696;23.354;2023-09-30T01:22:25;95595.06;;;16.67;66.89
7834;BME280;3962;42.696;23.354;2023-09-30T01:24:53;95596.22;;;16.72;66.75
7834;BME280;3962;42.696;23.354;2023-09-30T01:27:20;95589.34;;;16.70;66.93
7834;BME280;3962;42.696;23.354;2023-09-30T01:29:47;95595.28;;;16.57;67.26
7834;BME280;3962;42.696;23.354;2023-09-30T01:32:14;95593.50;;;16.42;67.79
7834;BME280;3962;42.696;23.354;2023-09-30T01:34:42;95595.38;;;16.33;68.40
7834;BME280;3962;42.696;23.354;2023-09-30T01:37:09;95591.19;;;16.31;68.88
7834;BME280;3962;42.696;23.354;2023-09-30T01:39:37;95596.72;;;16.29;68.87
7834;BME280;3962;42.696;23.354;2023-09-30T01:42:04;95593.38;;;16.27;69.08
7834;BME280;3962;42.696;23.354;2023-09-30T01:44:31;95583.81;;;16.25;69.25
7834;BME280;3962;42.696;23.354;2023-09-30T01:46:58;95569.59;;;16.16;68.61
7834;BME280;3962;42.696;23.354;2023-09-30T01:49:25;95588.34;;;16.24;68.65
7834;BME280;3962;42.696;23.354;2023-09-30T01:51:52;95584.03;;;16.15;68.99
7834;BME280;3962;42.696;23.354;2023-09-30T01:54:19;95590.25;;;16.16;68.84
7834;BME280;3962;42.696;23.354;2023-09-30T01:56:47;95584.38;;;16.12;68.77
7834;BME280;3962;42.696;23.354;2023-09-30T01:59:15;95585.06;;;16.06;69.27
7834;BME280;3962;42.696;23.354;2023-09-30T02:01:42;95582.09;;;16.01;69.10
7834;BME280;3962;42.696;23.354;2023-09-30T02:04:09;95584.28;;;15.98;69.34
7834;BME280;3962;42.696;23.354;2023-09-30T02:06:35;95577.03;;;15.98;69.24
7834;BME280;3962;42.696;23.354;2023-09-30T02:09:02;95581.91;;;15.95;69.22
7834;BME280;3962;42.696;23.354;2023-09-30T02:11:33;95584.47;;;15.88;68.69
7834;BME280;3962;42.696;23.354;2023-09-30T02:14:01;95577.75;;;15.84;68.74
7834;BME280;3962;42.696;23.354;2023-09-30T02:16:28;95586.31;;;15.80;68.95
7834;BME280;3962;42.696;23.354;2023-09-30T02:18:55;95579.66;;;15.68;69.69
7834;BME280;3962;42.696;23.354;2023-09-30T02:21:22;95585.19;;;15.58;69.46
7834;BME280;3962;42.696;23.354;2023-09-30T02:23:49;95584.56;;;15.48;69.60
7834;BME280;3962;42.696;23.354;2023-09-30T02:26:20;95582.91;;;15.31;69.87
7834;BME280;3962;42.696;23.354;2023-09-30T02:28:48;95586.06;;;15.27;70.20
7834;BME280;3962;42.696;23.354;2023-09-30T02:31:16;95585.72;;;15.22;69.24
7834;BME280;3962;42.696;23.354;2023-09-30T02:33:43;95576.81;;;15.13;68.88
7834;BME280;3962;42.696;23.354;2023-09-30T02:36:09;95584.03;;;15.21;68.79
7834;BME280;3962;42.696;23.354;2023-09-30T02:38:38;95584.84;;;15.21;69.00
7834;BME280;3962;42.696;23.354;2023-09-30T02:41:06;95585.56;;;15.15;69.07
7834;BME280;3962;42.696;23.354;2023-09-30T02:43:32;95579.00;;;15.10;69.12
7834;BME280;3962;42.696;23.354;2023-09-30T02:45:59;95584.53;;;15.08;69.09
7834;BME280;3962;42.696;23.354;2023-09-30T02:48:28;95583.53;;;15.09;68.59
7834;BME280;3962;42.696;23.354;2023-09-30T02:50:54;95584.84;;;14.97;68.89
7834;BME280;3962;42.696;23.354;2023-09-30T02:53:21;95589.69;;;14.86;69.11
7834;BME280;3962;42.696;23.354;2023-09-30T02:55:48;95583.50;;;14.85;69.46
7834;BME280;3962;42.696;23.354;2023-09-30T02:58:21;95576.13;;;14.79;69.29
7834;BME280;3962;42.696;23.354;2023-09-30T03:00:48;95580.84;;;14.85;70.16
7834;BME280;3962;42.696;23.354;2023-09-30T03:03:15;95584.00;;;14.81;69.78
7834;BME280;3962;42.696;23.354;2023-09-30T03:05:43;95581.16;;;14.90;70.08
7834;BME280;3962;42.696;23.354;2023-09-30T03:08:11;95585.84;;;14.96;70.04
7834;BME280;3962;42.696;23.354;2023-09-30T03:10:37;95577.66;;;14.98;70.23
7834;BME280;3962;42.696;23.354;2023-09-30T03:13:06;95578.66;;;14.97;69.66
7834;BME280;3962;42.696;23.354;2023-09-30T03:15:34;95574.81;;;14.99;69.65
7834;BME280;3962;42.696;23.354;2023-09-30T03:18:01;95583.19;;;15.04;69.69
7834;BME280;3962;42.696;23.354;2023-09-30T03:20:29;95588.38;;;14.98;69.61
7834;BME280;3962;42.696;23.354;2023-09-30T03:22:57;95582.66;;;14.93;70.13
7834;BME280;3962;42.696;23.354;2023-09-30T03:25:25;95592.88;;;14.89;70.32
7834;BME280;3962;42.696;23.354;2023-09-30T03:27:52;95587.00;;;14.86;70.63
7834;BME280;3962;42.696;23.354;2023-09-30T03:30:19;95584.16;;;14.79;71.00
7834;BME280;3962;42.696;23.354;2023-09-30T03:32:46;95585.69;;;14.90;71.17
7834;BME280;3962;42.696;23.354;2023-09-30T03:35:13;95578.81;;;14.95;71.08
7834;BME280;3962;42.696;23.354;2023-09-30T03:37:42;95582.00;;;14.99;71.14
7834;BME280;3962;42.696;23.354;2023-09-30T03:40:12;95574.31;;;15.04;71.14
7834;BME280;3962;42.696;23.354;2023-09-30T03:42:40;95587.72;;;15.04;70.97
7834;BME280;3962;42.696;23.354;2023-09-30T03:45:09;95579.50;;;15.05;71.02
7834;BME280;3962;42.696;23.354;2023-09-30T03:47:37;95576.00;;;15.13;70.01
7834;BME280;3962;42.696;23.354;2023-09-30T03:50:04;95572.31;;;15.06;69.96
7834;BME280;3962;42.696;23.354;2023-09-30T03:52:38;95578.84;;;15.03;70.35
7834;BME280;3962;42.696;23.354;2023-09-30T03:55:06;95582.38;;;15.12;70.36
7834;BME280;3962;42.696;23.354;2023-09-30T03:57:34;95580.19;;;15.15;70.09
7834;BME280;3962;42.696;23.354;2023-09-30T04:00:01;95585.19;;;15.10;70.00
7834;BME280;3962;42.696;23.354;2023-09-30T04:02:31;95580.50;;;14.96;70.44
7834;BME280;3962;42.696;23.354;2023-09-30T04:04:59;95592.88;;;14.89;70.56
7834;BME280;3962;42.696;23.354;2023-09-30T04:07:29;95589.53;;;14.79;70.87
7834;BME280;3962;42.696;23.354;2023-09-30T04:09:55;95593.03;;;14.72;70.80
7834;BME280;3962;42.696;23.354;2023-09-30T04:12:22;95599.06;;;14.66;70.86
7834;BME280;3962;42.696;23.354;2023-09-30T04:14:51;95595.50;;;14.58;70.61
7834;BME280;3962;42.696;23.354;2023-09-30T04:17:18;95598.66;;;14.45;71.16
7834;BME280;3962;42.696;23.354;2023-09-30T04:19:45;95593.78;;;14.41;71.62
7834;BME280;3962;42.696;23.354;2023-09-30T04:22:16;95595.94;;;14.37;71.81
7834;BME280;3962;42.696;23.354;2023-09-30T04:24:44;95597.44;;;14.32;71.82
7834;BME280;3962;42.696;23.354;2023-09-30T04:27:11;95602.91;;;14.22;71.68
7834;BME280;3962;42.696;23.354;2023-09-30T04:29:38;95601.34;;;14.12;72.19
7834;BME280;3962;42.696;23.354;2023-09-30T04:32:06;95604.53;;;14.15;72.09
7834;BME280;3962;42.696;23.354;2023-09-30T04:34:33;95611.28;;;14.19;71.74
7834;BME280;3962;42.696;23.354;2023-09-30T04:37:00;95609.72;;;14.17;71.55
7834;BME280;3962;42.696;23.354;2023-09-30T04:39:27;95613.59;;;14.56;71.51
7834;BME280;3962;42.696;23.354;2023-09-30T04:41:54;95615.88;;;14.43;71.45
7834;BME280;3962;42.696;23.354;2023-09-30T04:44:21;95612.34;;;14.34;71.58
7834;BME280;3962;42.696;23.354;2023-09-30T04:46:48;95616.34;;;14.30;72.10
7834;BME280;3962;42.696;23.354;2023-09-30T04:49:16;95617.47;;;14.20;72.04
7834;BME280;3962;42.696;23.354;2023-09-30T04:51:44;95609.47;;;13.94;73.39
7834;BME280;3962;42.696;23.354;2023-09-30T04:54:11;95621.44;;;13.82;73.80
7834;BME280;3962;42.696;23.354;2023-09-30T04:56:38;95625.19;;;13.72;74.17
7834;BME280;3962;42.696;23.354;2023-09-30T04:59:05;95623.81;;;13.60;74.99
7834;BME280;3962;42.696;23.354;2023-09-30T05:01:32;95618.59;;;13.58;74.53
7834;BME280;3962;42.696;23.354;2023-09-30T05:03:58;95614.63;;;13.62;74.42
7834;BME280;3962;42.696;23.354;2023-09-30T05:06:26;95607.97;;;13.66;74.64
7834;BME280;3962;42.696;23.354;2023-09-30T05:08:55;95604.13;;;13.69;74.70
7834;BME280;3962;42.696;23.354;2023-09-30T05:11:22;95624.81;;;13.92;74.31
7834;BME280;3962;42.696;23.354;2023-09-30T05:13:49;95625.56;;;14.02;73.94
7834;BME280;3962;42.696;23.354;2023-09-30T05:16:16;95637.66;;;14.14;73.09
7834;BME280;3962;42.696;23.354;2023-09-30T05:18:43;95630.69;;;14.21;72.12
7834;BME280;3962;42.696;23.354;2023-09-30T05:21:10;95632.06;;;14.25;72.94
7834;BME280;3962;42.696;23.354;2023-09-30T05:23:39;95635.16;;;14.13;72.77
7834;BME280;3962;42.696;23.354;2023-09-30T05:26:05;95630.03;;;14.19;72.76
7834;BME280;3962;42.696;23.354;2023-09-30T05:28:32;95627.53;;;14.26;72.50
7834;BME280;3962;42.696;23.354;2023-09-30T05:31:00;95638.47;;;14.40;72.24
7834;BME280;3962;42.696;23.354;2023-09-30T05:33:26;95637.31;;;14.51;71.17
7834;BME280;3962;42.696;23.354;2023-09-30T05:35:53;95637.19;;;14.60;71.09
7834;BME280;3962;42.696;23.354;2023-09-30T05:38:20;95637.22;;;14.76;70.42
7834;BME280;3962;42.696;23.354;2023-09-30T05:40:50;95637.91;;;14.78;70.00
7834;BME280;3962;42.696;23.354;2023-09-30T05:43:16;95636.44;;;14.83;69.82
7834;BME280;3962;42.696;23.354;2023-09-30T05:45:43;95635.22;;;14.86;70.10
7834;BME280;3962;42.696;23.354;2023-09-30T05:48:14;95645.47;;;14.98;69.63
7834;BME280;3962;42.696;23.354;2023-09-30T05:50:42;95640.97;;;14.99;69.76
7834;BME280;3962;42.696;23.354;2023-09-30T05:53:09;95649.16;;;15.05;69.55
7834;BME280;3962;42.696;23.354;2023-09-30T05:55:37;95638.13;;;15.08;69.18
7834;BME280;3962;42.696;23.354;2023-09-30T05:58:08;95647.34;;;15.22;68.73
7834;BME280;3962;42.696;23.354;2023-09-30T06:00:35;95649.38;;;15.20;68.51
7834;BME280;3962;42.696;23.354;2023-09-30T06:03:03;95643.19;;;15.35;68.34
7834;BME280;3962;42.696;23.354;2023-09-30T06:05:31;95649.22;;;15.53;68.10
7834;BME280;3962;42.696;23.354;2023-09-30T06:08:00;95643.38;;;15.66;67.10
7834;BME280;3962;42.696;23.354;2023-09-30T06:10:28;95648.03;;;15.72;66.95
7834;BME280;3962;42.696;23.354;2023-09-30T06:12:56;95655.44;;;15.70;66.68
7834;BME280;3962;42.696;23.354;2023-09-30T06:15:25;95655.94;;;15.49;67.05
7834;BME280;3962;42.696;23.354;2023-09-30T06:17:52;95664.66;;;15.59;66.85
7834;BME280;3962;42.696;23.354;2023-09-30T06:20:19;95662.44;;;15.79;66.77
7834;BME280;3962;42.696;23.354;2023-09-30T06:22:48;95658.75;;;15.80;66.85
7834;BME280;3962;42.696;23.354;2023-09-30T06:25:16;95656.41;;;15.93;66.60
7834;BME280;3962;42.696;23.354;2023-09-30T06:27:43;95664.06;;;16.12;65.76
7834;BME280;3962;42.696;23.354;2023-09-30T06:30:11;95674.06;;;16.34;64.97
7834;BME280;3962;42.696;23.354;2023-09-30T06:32:40;95676.94;;;16.48;65.04
7834;BME280;3962;42.696;23.354;2023-09-30T06:35:07;95672.06;;;16.44;64.46
7834;BME280;3962;42.696;23.354;2023-09-30T06:37:36;95666.03;;;16.42;63.76
7834;BME280;3962;42.696;23.354;2023-09-30T06:40:05;95666.97;;;16.57;63.97
7834;BME280;3962;42.696;23.354;2023-09-30T06:42:33;95664.66;;;16.54;64.03
7834;BME280;3962;42.696;23.354;2023-09-30T06:45:00;95668.78;;;16.72;63.37
7834;BME280;3962;42.696;23.354;2023-09-30T06:47:31;95658.72;;;16.97;62.81
7834;BME280;3962;42.696;23.354;2023-09-30T06:50:00;95659.63;;;17.12;61.68
7834;BME280;3962;42.696;23.354;2023-09-30T06:52:33;95666.28;;;17.24;61.44
7834;BME280;3962;42.696;23.354;2023-09-30T06:54:59;95670.91;;;17.38;61.34
7834;BME280;3962;42.696;23.354;2023-09-30T06:57:26;95669.56;;;17.42;61.18
7834;BME280;3962;42.696;23.354;2023-09-30T06:59:53;95683.47;;;17.45;60.96
7834;BME280;3962;42.696;23.354;2023-09-30T07:02:21;95683.84;;;17.65;60.40
7834;BME280;3962;42.696;23.354;2023-09-30T07:04:55;95684.41;;;17.75;60.40
7834;BME280;3962;42.696;23.354;2023-09-30T07:07:24;95673.00;;;17.73;59.31
7834;BME280;3962;42.696;23.354;2023-09-30T07:09:51;95685.19;;;17.83;59.60
7834;BME280;3962;42.696;23.354;2023-09-30T07:12:18;95687.59;;;17.78;59.26
7834;BME280;3962;42.696;23.354;2023-09-30T07:14:45;95689.66;;;17.91;59.56
7834;BME280;3962;42.696;23.354;2023-09-30T07:17:14;95686.47;;;18.10;58.54
7834;BME280;3962;42.696;23.354;2023-09-30T07:19:40;95685.53;;;18.17;58.53
7834;BME280;3962;42.696;23.354;2023-09-30T07:22:07;95684.94;;;18.30;57.86
7834;BME280;3962;42.696;23.354;2023-09-30T07:24:35;95687.53;;;18.38;57.43
7834;BME280;3962;42.696;23.354;2023-09-30T07:27:04;95690.44;;;18.51;56.82
7834;BME280;3962;42.696;23.354;2023-09-30T07:29:32;95690.72;;;18.70;56.86
7834;BME280;3962;42.696;23.354;2023-09-30T07:31:58;95692.81;;;18.89;56.04
7834;BME280;3962;42.696;23.354;2023-09-30T07:34:25;95692.16;;;19.01;55.89
7834;BME280;3962;42.696;23.354;2023-09-30T07:36:52;95683.31;;;19.07;55.01
7834;BME280;3962;42.696;23.354;2023-09-30T07:39:20;95687.88;;;19.21;55.10
7834;BME280;3962;42.696;23.354;2023-09-30T07:41:49;95692.19;;;19.37;54.27
7834;BME280;3962;42.696;23.354;2023-09-30T07:44:15;95689.66;;;19.50;54.40
7834;BME280;3962;42.696;23.354;2023-09-30T07:46:42;95690.88;;;19.68;53.70
7834;BME280;3962;42.696;23.354;2023-09-30T07:49:10;95689.06;;;19.96;52.76
7834;BME280;3962;42.696;23.354;2023-09-30T07:51:37;95686.25;;;20.04;52.04
7834;BME280;3962;42.696;23.354;2023-09-30T07:54:05;95679.00;;;20.32;52.10
7834;BME280;3962;42.696;23.354;2023-09-30T07:56:32;95699.75;;;21.87;48.78
7834;BME280;3962;42.696;23.354;2023-09-30T07:59:02;95697.16;;;23.22;45.49
7834;BME280;3962;42.696;23.354;2023-09-30T08:01:28;95688.13;;;24.09;43.43
7834;BME280;3962;42.696;23.354;2023-09-30T08:03:55;95696.00;;;24.91;42.20
7834;BME280;3962;42.696;23.354;2023-09-30T08:06:22;95693.31;;;25.63;40.75
7834;BME280;3962;42.696;23.354;2023-09-30T08:08:49;95704.38;;;25.97;39.59
7834;BME280;3962;42.696;23.354;2023-09-30T08:11:17;95699.16;;;26.89;38.50
7834;BME280;3962;42.696;23.354;2023-09-30T08:13:46;95701.38;;;26.92;37.96
7834;BME280;3962;42.696;23.354;2023-09-30T08:16:14;95699.72;;;26.68;37.40
7834;BME280;3962;42.696;23.354;2023-09-30T08:18:41;95699.16;;;26.78;37.52
7834;BME280;3962;42.696;23.354;2023-09-30T08:21:09;95704.84;;;27.11;37.24
7834;BME280;3962;42.696;23.354;2023-09-30T08:23:36;95708.88;;;27.42;36.69
7834;BME280;3962;42.696;23.354;2023-09-30T08:26:04;95698.94;;;27.64;35.96
7834;BME280;3962;42.696;23.354;2023-09-30T08:28:31;95701.69;;;27.76;35.70
7834;BME280;3962;42.696;23.354;2023-09-30T08:31:02;95697.50;;;27.73;35.79
7834;BME280;3962;42.696;23.354;2023-09-30T08:33:31;95690.78;;;27.53;35.82
7834;BME280;3962;42.696;23.354;2023-09-30T08:36:02;95697.53;;;27.62;35.87
7834;BME280;3962;42.696;23.354;2023-09-30T08:38:32;95701.72;;;27.53;35.42
7834;BME280;3962;42.696;23.354;2023-09-30T08:40:59;95690.69;;;27.37;35.71
7834;BME280;3962;42.696;23.354;2023-09-30T08:43:27;95676.00;;;27.65;35.44
7834;BME280;3962;42.696;23.354;2023-09-30T08:45:56;95688.41;;;27.45;34.39
7834;BME280;3962;42.696;23.354;2023-09-30T08:48:23;95682.28;;;26.69;35.59
7834;BME280;3962;42.696;23.354;2023-09-30T08:50:53;95679.84;;;26.50;35.85
7834;BME280;3962;42.696;23.354;2023-09-30T08:53:22;95681.00;;;26.19;35.58
7834;BME280;3962;42.696;23.354;2023-09-30T08:55:52;95679.63;;;25.99;35.70
7834;BME280;3962;42.696;23.354;2023-09-30T08:58:23;95674.16;;;25.99;35.66
7834;BME280;3962;42.696;23.354;2023-09-30T09:00:50;95679.88;;;26.09;33.59
7834;BME280;3962;42.696;23.354;2023-09-30T09:03:19;95666.41;;;26.25;33.17
7834;BME280;3962;42.696;23.354;2023-09-30T09:05:46;95678.34;;;26.54;33.28
7834;BME280;3962;42.696;23.354;2023-09-30T09:08:14;95666.84;;;26.52;33.91
7834;BME280;3962;42.696;23.354;2023-09-30T09:10:55;95674.22;;;26.63;34.82
7834;BME280;3962;42.696;23.354;2023-09-30T09:13:22;95661.03;;;26.83;33.50
7834;BME280;3962;42.696;23.354;2023-09-30T09:15:50;95663.63;;;26.55;33.01
7834;BME280;3962;42.696;23.354;2023-09-30T09:18:32;95664.22;;;26.57;33.51
7834;BME280;3962;42.696;23.354;2023-09-30T09:21:10;95657.63;;;26.23;33.23
7834;BME280;3962;42.696;23.354;2023-09-30T09:23:43;95664.97;;;26.23;33.51
7834;BME280;3962;42.696;23.354;2023-09-30T09:26:11;95664.13;;;26.22;33.77
7834;BME280;3962;42.696;23.354;2023-09-30T09:28:39;95656.69;;;26.29;33.58
7834;BME280;3962;42.696;23.354;2023-09-30T09:31:22;95654.69;;;26.36;33.89
7834;BME280;3962;42.696;23.354;2023-09-30T09:33:50;95653.97;;;26.41;33.36
7834;BME280;3962;42.696;23.354;2023-09-30T09:36:17;95656.31;;;26.26;33.42
7834;BME280;3962;42.696;23.354;2023-09-30T09:38:48;95649.13;;;25.90;33.81
7834;BME280;3962;42.696;23.354;2023-09-30T09:41:16;95655.56;;;26.07;34.40
7834;BME280;3962;42.696;23.354;2023-09-30T09:43:44;95647.31;;;26.25;33.50
7834;BME280;3962;42.696;23.354;2023-09-30T09:46:11;95646.34;;;26.20;33.41
7834;BME280;3962;42.696;23.354;2023-09-30T09:48:39;95641.31;;;25.94;34.17
7834;BME280;3962;42.696;23.354;2023-09-30T09:51:06;95641.88;;;25.37;34.91
7834;BME280;3962;42.696;23.354;2023-09-30T09:53:39;95629.31;;;25.18;34.75
7834;BME280;3962;42.696;23.354;2023-09-30T09:56:08;95639.22;;;25.12;34.88
7834;BME280;3962;42.696;23.354;2023-09-30T09:58:39;95635.47;;;25.31;35.28
7834;BME280;3962;42.696;23.354;2023-09-30T10:01:08;95630.19;;;25.48;34.82
7834;BME280;3962;42.696;23.354;2023-09-30T10:03:36;95635.31;;;25.74;34.33
7834;BME280;3962;42.696;23.354;2023-09-30T10:06:03;95635.84;;;25.94;33.83
7834;BME280;3962;42.696;23.354;2023-09-30T10:08:33;95621.47;;;26.28;34.19
7834;BME280;3962;42.696;23.354;2023-09-30T10:11:02;95615.34;;;26.03;33.75
7834;BME280;3962;42.696;23.354;2023-09-30T10:13:52;95611.34;;;25.76;34.11
7834;BME280;3962;42.696;23.354;2023-09-30T10:16:48;95609.03;;;25.50;33.31
7834;BME280;3962;42.696;23.354;2023-09-30T10:19:20;95601.13;;;25.60;34.06
7834;BME280;3962;42.696;23.354;2023-09-30T10:22:25;95597.44;;;25.54;33.01
7834;BME280;3962;42.696;23.354;2023-09-30T10:24:53;95600.13;;;25.25;33.17
7834;BME280;3962;42.696;23.354;2023-09-30T10:27:33;95601.88;;;25.37;32.87
7834;BME280;3962;42.696;23.354;2023-09-30T10:30:11;95600.09;;;25.43;32.11
7834;BME280;3962;42.696;23.354;2023-09-30T10:33:12;95593.66;;;25.19;32.64
7834;BME280;3962;42.696;23.354;2023-09-30T10:35:47;95583.34;;;25.10;32.75
7834;BME280;3962;42.696;23.354;2023-09-30T10:38:44;95588.25;;;25.37;32.88
7834;BME280;3962;42.696;23.354;2023-09-30T10:41:49;95595.34;;;25.38;32.53
7834;BME280;3962;42.696;23.354;2023-09-30T10:44:35;95592.38;;;25.40;32.14
7834;BME280;3962;42.696;23.354;2023-09-30T10:47:35;95593.00;;;25.42;32.52
7834;BME280;3962;42.696;23.354;2023-09-30T10:50:04;95585.78;;;25.47;32.98
7834;BME280;3962;42.696;23.354;2023-09-30T10:52:51;95584.69;;;25.78;32.35
7834;BME280;3962;42.696;23.354;2023-09-30T10:55:19;95587.38;;;25.66;32.26
7834;BME280;3962;42.696;23.354;2023-09-30T10:57:50;95584.19;;;25.58;32.27
7834;BME280;3962;42.696;23.354;2023-09-30T11:00:18;95580.34;;;25.47;32.54
7834;BME280;3962;42.696;23.354;2023-09-30T11:02:50;95575.53;;;25.31;32.77
7834;BME280;3962;42.696;23.354;2023-09-30T11:05:18;95574.38;;;25.21;32.20
7834;BME280;3962;42.696;23.354;2023-09-30T11:07:48;95582.88;;;25.13;32.60
7834;BME280;3962;42.696;23.354;2023-09-30T11:10:17;95574.47;;;25.14;32.70
7834;BME280;3962;42.696;23.354;2023-09-30T11:12:54;95567.91;;;25.51;32.08
7834;BME280;3962;42.696;23.354;2023-09-30T11:15:22;95571.78;;;25.44;32.33
7834;BME280;3962;42.696;23.354;2023-09-30T11:17:52;95560.56;;;25.04;32.67
7834;BME280;3962;42.696;23.354;2023-09-30T11:20:19;95577.47;;;25.42;33.14
7834;BME280;3962;42.696;23.354;2023-09-30T11:22:47;95572.13;;;25.36;32.29
7834;BME280;3962;42.696;23.354;2023-09-30T11:25:17;95558.19;;;25.44;32.65
7834;BME280;3962;42.696;23.354;2023-09-30T11:27:45;95556.41;;;25.49;32.13
7834;BME280;3962;42.696;23.354;2023-09-30T11:30:13;95558.34;;;25.72;32.73
7834;BME280;3962;42.696;23.354;2023-09-30T11:32:40;95559.34;;;25.77;32.25
7834;BME280;3962;42.696;23.354;2023-09-30T11:35:22;95560.69;;;25.27;32.99
7834;BME280;3962;42.696;23.354;2023-09-30T11:37:51;95553.38;;;25.10;32.92
7834;BME280;3962;42.696;23.354;2023-09-30T11:40:18;95555.53;;;25.19;33.08
7834;BME280;3962;42.696;23.354;2023-09-30T11:43:07;95553.75;;;25.31;33.10
7834;BME280;3962;42.696;23.354;2023-09-30T11:45:34;95546.34;;;25.50;32.79
7834;BME280;3962;42.696;23.354;2023-09-30T11:48:00;95543.63;;;25.50;32.77
7834;BME280;3962;42.696;23.354;2023-09-30T11:50:47;95533.09;;;25.53;33.19
7834;BME280;3962;42.696;23.354;2023-09-30T11:53:16;95531.59;;;25.69;33.16
7834;BME280;3962;42.696;23.354;2023-09-30T11:55:43;95535.91;;;25.88;33.32
7834;BME280;3962;42.696;23.354;2023-09-30T11:58:11;95537.69;;;25.94;32.89
7834;BME280;3962;42.696;23.354;2023-09-30T12:00:44;95535.44;;;25.91;32.97
7834;BME280;3962;42.696;23.354;2023-09-30T12:03:10;95522.59;;;25.80;32.86
7834;BME280;3962;42.696;23.354;2023-09-30T12:05:37;95531.75;;;25.85;32.72
7834;BME280;3962;42.696;23.354;2023-09-30T12:08:06;95530.44;;;25.88;32.51
7834;BME280;3962;42.696;23.354;2023-09-30T12:10:33;95521.59;;;25.63;33.01
7834;BME280;3962;42.696;23.354;2023-09-30T12:13:00;95527.19;;;25.68;32.53
7834;BME280;3962;42.696;23.354;2023-09-30T12:15:26;95525.94;;;25.82;32.35
7834;BME280;3962;42.696;23.354;2023-09-30T12:17:54;95520.47;;;25.82;32.55
7834;BME280;3962;42.696;23.354;2023-09-30T12:20:20;95514.75;;;25.72;32.36
7834;BME280;3962;42.696;23.354;2023-09-30T12:22:47;95516.06;;;25.69;32.26
7834;BME280;3962;42.696;23.354;2023-09-30T12:25:16;95503.78;;;25.49;32.55
7834;BME280;3962;42.696;23.354;2023-09-30T12:27:47;95499.53;;;25.94;32.55
7834;BME280;3962;42.696;23.354;2023-09-30T12:30:13;95501.50;;;25.87;32.33
7834;BME280;3962;42.696;23.354;2023-09-30T12:32:40;95500.63;;;25.52;32.64
7834;BME280;3962;42.696;23.354;2023-09-30T12:35:08;95506.06;;;25.52;32.59
7834;BME280;3962;42.696;23.354;2023-09-30T12:37:35;95495.91;;;25.59;32.29
7834;BME280;3962;42.696;23.354;2023-09-30T12:40:04;95489.41;;;25.83;32.45
7834;BME280;3962;42.696;23.354;2023-09-30T12:42:33;95500.09;;;25.73;32.98
7834;BME280;3962;42.696;23.354;2023-09-30T12:45:00;95502.28;;;25.53;32.98
7834;BME280;3962;42.696;23.354;2023-09-30T12:47:28;95492.94;;;25.72;32.92
7834;BME280;3962;42.696;23.354;2023-09-30T12:49:55;95493.28;;;25.64;32.47
7834;BME280;3962;42.696;23.354;2023-09-30T12:52:23;95489.53;;;25.65;32.60
7834;BME280;3962;42.696;23.354;2023-09-30T12:54:51;95483.88;;;25.89;32.59
7834;BME280;3962;42.696;23.354;2023-09-30T12:57:17;95480.66;;;26.04;32.63
7834;BME280;3962;42.696;23.354;2023-09-30T12:59:46;95483.66;;;26.02;31.92
7834;BME280;3962;42.696;23.354;2023-09-30T13:02:14;95488.84;;;26.04;32.11
7834;BME280;3962;42.696;23.354;2023-09-30T13:04:43;95483.75;;;26.07;32.31
7834;BME280;3962;42.696;23.354;2023-09-30T13:07:11;95485.19;;;26.10;32.10
7834;BME280;3962;42.696;23.354;2023-09-30T13:09:38;95475.84;;;26.06;32.63
7834;BME280;3962;42.696;23.354;2023-09-30T13:12:05;95471.44;;;25.41;33.29
7834;BME280;3962;42.696;23.354;2023-09-30T13:14:32;95469.91;;;25.04;33.75
7834;BME280;3962;42.696;23.354;2023-09-30T13:17:00;95472.41;;;25.17;33.55
7834;BME280;3962;42.696;23.354;2023-09-30T13:19:29;95470.03;;;25.38;33.47